Saturday, November 18, 2017, 6:11 PM EST
Back to Local

KLNS, Lancaster Airport

Location: Lititz, PA, United States Lat: 40.117
Local Time: 6:11 PM EST (23:11 GMT) Lon: -76.3
Time Zone: US/Eastern Elev: 403 ft

Show me the last for .
Show Decoded

2017-11-18 17:53 METAR KLNS 182253Z 08006KT 6SM BR FEW060 BKN110 07/07 A2956 RMK AO2 RAE12 SLP012
                 P0000 T00670067 =
2017-11-18 16:53 METAR KLNS 182153Z 07005KT 6SM -RA BR OVC060 07/07 A2960 RMK AO2 SLP024 P0004
                 T00670067 =
2017-11-18 16:35 METAR KLNS 182135Z 06006KT 4SM RA BR SCT050 OVC065 07/07 A2960 RMK AO2 P0004
                 T00670067 =
2017-11-18 15:53 METAR KLNS 182053Z 11004KT 2SM -RA BR SCT044 OVC060 06/06 A2963 RMK AO2 SLP036
                 P0019 60061 T00610061 56037 =
2017-11-18 15:33 METAR KLNS 182033Z 14003KT 2 1/2SM RA BR BKN040 OVC048 07/07 A2965 RMK AO2 P0014
                 T00670067 =
2017-11-18 15:16 METAR KLNS 182016Z 12005KT 1 3/4SM +RA BR BKN037 BKN049 OVC055 07/06 A2964 RMK
                 AO2 P0008 T00670061 =
2017-11-18 14:53 METAR KLNS 181953Z 14004KT 2SM +RA BR FEW038 BKN060 OVC070 06/06 A2966 RMK AO2
                 SLP046 P0022 T00610061 =
2017-11-18 13:53 METAR KLNS 181853Z 14005KT 2 1/2SM RA BR BKN050 BKN060 OVC075 06/06 A2969 RMK
                 AO2 SLP055 P0020 T00610061 =
2017-11-18 12:53 METAR KLNS 181753Z 16005KT 2SM +RA BR SCT043 BKN050 OVC070 06/06 A2974 RMK AO2
                 SLP072 P0024 60037 T00610061 10067 20039 56041 =
2017-11-18 12:30 METAR KLNS 181730Z 14004KT 2SM +RA BR SCT046 BKN080 OVC095 06/06 A2974 RMK AO2
                 P0012 T00610056 =
2017-11-18 12:00 METAR KLNS 181700Z 11004KT 3SM RA BR FEW050 BKN060 OVC090 06/05 A2976 RMK AO2
                 P0002 T00610050 =
2017-11-18 11:53 METAR KLNS 181653Z 11004KT 2 1/2SM RA BR BKN060 OVC080 06/05 A2976 RMK AO2
                 PRESFR SLP081 P0012 T00610050 =
2017-11-18 10:53 METAR KLNS 181553Z 18005KT 7SM -RA OVC090 07/03 A2983 RMK AO2 RAB24 SLP102 P0001
                 T00670033 =
2017-11-18 09:53 METAR KLNS 181453Z 14005KT 10SM OVC100 06/03 A2986 RMK AO2 SLP114 T00610033
                 58017 =
2017-11-18 08:53 METAR KLNS 181353Z 15005KT 10SM CLR 06/03 A2989 RMK AO2 SLP123 T00560033 =
2017-11-18 07:53 METAR KLNS 181253Z 13007KT 10SM CLR 04/02 A2989 RMK AO2 SLP125 T00390022 =
2017-11-18 06:53 METAR KLNS 181153Z 08005KT 10SM CLR 02/00 A2991 RMK AO2 SLP131 T00170000 10022
                 21022 58026 =
2017-11-18 05:53 METAR KLNS 181053Z 07004KT 10SM CLR M01/M02 A2994 RMK AO2 SLP142 T10111022 =
2017-11-18 04:53 METAR KLNS 180953Z AUTO 07004KT 10SM CLR M01/M03 A2997 RMK AO2 SLP150 T10111033
                 =
2017-11-18 03:53 METAR KLNS 180853Z AUTO 10004KT 9SM CLR M02/M03 A2999 RMK AO2 SLP156 T10221028
                 56019 =
2017-11-18 02:53 METAR KLNS 180753Z AUTO 00000KT 9SM CLR M01/M02 A3000 RMK AO2 SLP160 T10111022 =
2017-11-18 01:53 METAR KLNS 180653Z AUTO 10005KT 9SM CLR M01/M02 A3001 RMK AO2 SLP166 T10111022 =
2017-11-18 00:53 METAR KLNS 180553Z AUTO 09005KT 10SM CLR M01/M02 A3004 RMK AO2 SLP176 T10111022
                 10050 21011 58018 =
2017-11-17 23:53 METAR KLNS 180453Z AUTO 06003KT 10SM CLR 00/M02 A3007 RMK AO2 SLP184 T00001022
                 400941011 =
2017-11-17 22:53 METAR KLNS 180353Z 00000KT 10SM CLR 01/M03 A3008 RMK AO2 SLP189 T00111028 =
2017-11-17 21:53 METAR KLNS 180253Z 04003KT 10SM CLR 01/M03 A3010 RMK AO2 SLP194 T00061028 56009
                 =
2017-11-17 20:53 METAR KLNS 180153Z 00000KT 10SM CLR 01/M03 A3010 RMK AO2 SLP196 T00111028 =
2017-11-17 19:53 METAR KLNS 180053Z VRB04KT 10SM CLR 01/M03 A3011 RMK AO2 SLP201 T00111028 =
2017-11-17 18:53 METAR KLNS 172353Z 28004KT 10SM CLR 05/M03 A3012 RMK AO2 SLP203 T00501028 10094
                 20039 58000 =

Support USWX by starting your Amazon purchase here.